sensor_id;sensor_type;location;lat;lon;timestamp;P1;durP1;ratioP1;P2;durP2;ratioP2
7747;SDS011;3918;42.564;23.164;2022-09-13T05:01:14;9.23;;;8.18;;
7747;SDS011;3918;42.564;23.164;2022-09-13T05:03:42;9.55;;;6.80;;
7747;SDS011;3918;42.564;23.164;2022-09-13T05:06:09;7.75;;;6.97;;
7747;SDS011;3918;42.564;23.164;2022-09-13T05:08:38;7.53;;;6.47;;
7747;SDS011;3918;42.564;23.164;2022-09-13T05:11:05;15.20;;;6.93;;
7747;SDS011;3918;42.564;23.164;2022-09-13T05:13:32;8.75;;;6.97;;
7747;SDS011;3918;42.564;23.164;2022-09-13T05:16:00;9.02;;;6.35;;
7747;SDS011;3918;42.564;23.164;2022-09-13T05:18:30;8.45;;;6.22;;
7747;SDS011;3918;42.564;23.164;2022-09-13T05:20:59;5.97;;;5.38;;
7747;SDS011;3918;42.564;23.164;2022-09-13T05:23:27;6.20;;;5.50;;
7747;SDS011;3918;42.564;23.164;2022-09-13T05:25:56;6.85;;;5.03;;
7747;SDS011;3918;42.564;23.164;2022-09-13T05:28:25;7.47;;;5.10;;
7747;SDS011;3918;42.564;23.164;2022-09-13T05:30:54;5.85;;;5.35;;
7747;SDS011;3918;42.564;23.164;2022-09-13T05:33:22;4.90;;;4.07;;
7747;SDS011;3918;42.564;23.164;2022-09-13T05:35:50;4.85;;;4.20;;
7747;SDS011;3918;42.564;23.164;2022-09-13T05:38:17;5.20;;;4.65;;
7747;SDS011;3918;42.564;23.164;2022-09-13T05:40:45;5.63;;;4.57;;
7747;SDS011;3918;42.564;23.164;2022-09-13T05:43:12;6.38;;;4.13;;
7747;SDS011;3918;42.564;23.164;2022-09-13T05:45:40;3.80;;;3.40;;
7747;SDS011;3918;42.564;23.164;2022-09-13T05:48:07;5.03;;;3.10;;
7747;SDS011;3918;42.564;23.164;2022-09-13T05:50:36;8.23;;;3.33;;
7747;SDS011;3918;42.564;23.164;2022-09-13T05:53:04;3.17;;;2.97;;
7747;SDS011;3918;42.564;23.164;2022-09-13T05:55:31;3.47;;;3.17;;
7747;SDS011;3918;42.564;23.164;2022-09-13T05:58:00;8.25;;;3.15;;
7747;SDS011;3918;42.564;23.164;2022-09-13T06:00:27;13.27;;;3.22;;
7747;SDS011;3918;42.564;23.164;2022-09-13T06:02:55;3.20;;;2.90;;
7747;SDS011;3918;42.564;23.164;2022-09-13T06:05:22;9.15;;;3.17;;
7747;SDS011;3918;42.564;23.164;2022-09-13T06:07:49;5.43;;;2.70;;
7747;SDS011;3918;42.564;23.164;2022-09-13T06:10:17;3.60;;;2.58;;
7747;SDS011;3918;42.564;23.164;2022-09-13T06:12:45;7.57;;;2.30;;
7747;SDS011;3918;42.564;23.164;2022-09-13T06:15:12;4.70;;;2.65;;
7747;SDS011;3918;42.564;23.164;2022-09-13T06:17:39;14.63;;;3.50;;
7747;SDS011;3918;42.564;23.164;2022-09-13T06:20:07;6.53;;;2.78;;
7747;SDS011;3918;42.564;23.164;2022-09-13T06:22:34;3.50;;;2.70;;
7747;SDS011;3918;42.564;23.164;2022-09-13T06:25:01;4.82;;;3.00;;
7747;SDS011;3918;42.564;23.164;2022-09-13T06:27:30;4.13;;;2.75;;
7747;SDS011;3918;42.564;23.164;2022-09-13T06:29:57;5.38;;;2.40;;
7747;SDS011;3918;42.564;23.164;2022-09-13T06:32:24;3.05;;;2.88;;
7747;SDS011;3918;42.564;23.164;2022-09-13T06:34:51;6.28;;;2.90;;
7747;SDS011;3918;42.564;23.164;2022-09-13T06:37:17;3.13;;;2.60;;
7747;SDS011;3918;42.564;23.164;2022-09-13T06:39:44;2.90;;;2.60;;
7747;SDS011;3918;42.564;23.164;2022-09-13T06:42:11;5.82;;;2.65;;
7747;SDS011;3918;42.564;23.164;2022-09-13T06:44:40;3.22;;;2.92;;
7747;SDS011;3918;42.564;23.164;2022-09-13T06:47:07;3.22;;;2.90;;
7747;SDS011;3918;42.564;23.164;2022-09-13T06:49:35;4.53;;;3.10;;
7747;SDS011;3918;42.564;23.164;2022-09-13T06:52:01;13.55;;;3.13;;
7747;SDS011;3918;42.564;23.164;2022-09-13T06:54:28;10.43;;;2.88;;
7747;SDS011;3918;42.564;23.164;2022-09-13T06:56:55;4.47;;;3.13;;
7747;SDS011;3918;42.564;23.164;2022-09-13T06:59:22;9.40;;;3.28;;
7747;SDS011;3918;42.564;23.164;2022-09-13T07:01:50;3.35;;;3.13;;
7747;SDS011;3918;42.564;23.164;2022-09-13T07:04:17;6.50;;;3.58;;
7747;SDS011;3918;42.564;23.164;2022-09-13T07:06:44;10.73;;;3.67;;
7747;SDS011;3918;42.564;23.164;2022-09-13T07:09:13;3.78;;;3.47;;
7747;SDS011;3918;42.564;23.164;2022-09-13T07:11:42;3.97;;;3.58;;
7747;SDS011;3918;42.564;23.164;2022-09-13T07:14:12;4.40;;;2.80;;
7747;SDS011;3918;42.564;23.164;2022-09-13T07:16:39;6.90;;;3.30;;
7747;SDS011;3918;42.564;23.164;2022-09-13T07:19:11;3.55;;;3.03;;
7747;SDS011;3918;42.564;23.164;2022-09-13T07:21:39;5.75;;;3.53;;
7747;SDS011;3918;42.564;23.164;2022-09-13T07:24:06;3.15;;;2.85;;
7747;SDS011;3918;42.564;23.164;2022-09-13T07:26:33;5.68;;;2.90;;
7747;SDS011;3918;42.564;23.164;2022-09-13T07:29:01;4.00;;;3.10;;
7747;SDS011;3918;42.564;23.164;2022-09-13T07:31:30;7.10;;;3.10;;
7747;SDS011;3918;42.564;23.164;2022-09-13T07:33:59;14.38;;;3.25;;
7747;SDS011;3918;42.564;23.164;2022-09-13T07:36:29;20.38;;;3.17;;
7747;SDS011;3918;42.564;23.164;2022-09-13T07:38:57;5.13;;;3.33;;
7747;SDS011;3918;42.564;23.164;2022-09-13T07:41:26;4.95;;;3.05;;
7747;SDS011;3918;42.564;23.164;2022-09-13T07:43:54;4.32;;;2.90;;
7747;SDS011;3918;42.564;23.164;2022-09-13T07:46:22;12.20;;;2.90;;
7747;SDS011;3918;42.564;23.164;2022-09-13T07:48:51;4.40;;;2.65;;
7747;SDS011;3918;42.564;23.164;2022-09-13T07:51:19;11.02;;;3.50;;
7747;SDS011;3918;42.564;23.164;2022-09-13T07:53:50;16.35;;;3.95;;
7747;SDS011;3918;42.564;23.164;2022-09-13T07:56:19;7.75;;;3.17;;
7747;SDS011;3918;42.564;23.164;2022-09-13T07:58:47;8.50;;;3.35;;
7747;SDS011;3918;42.564;23.164;2022-09-13T08:01:15;6.15;;;2.30;;
7747;SDS011;3918;42.564;23.164;2022-09-13T08:03:47;4.95;;;2.65;;
7747;SDS011;3918;42.564;23.164;2022-09-13T08:06:17;7.13;;;3.30;;
7747;SDS011;3918;42.564;23.164;2022-09-13T08:08:43;7.95;;;2.50;;
7747;SDS011;3918;42.564;23.164;2022-09-13T08:11:13;24.00;;;3.20;;
7747;SDS011;3918;42.564;23.164;2022-09-13T08:13:43;14.45;;;3.60;;
7747;SDS011;3918;42.564;23.164;2022-09-13T08:16:10;3.10;;;2.47;;
7747;SDS011;3918;42.564;23.164;2022-09-13T08:18:41;2.42;;;2.22;;
7747;SDS011;3918;42.564;23.164;2022-09-13T08:21:09;2.20;;;2.00;;
7747;SDS011;3918;42.564;23.164;2022-09-13T08:23:36;16.42;;;2.70;;
7747;SDS011;3918;42.564;23.164;2022-09-13T08:26:03;1.98;;;1.88;;
7747;SDS011;3918;42.564;23.164;2022-09-13T08:28:34;7.93;;;2.22;;
7747;SDS011;3918;42.564;23.164;2022-09-13T08:31:02;2.30;;;1.50;;
7747;SDS011;3918;42.564;23.164;2022-09-13T08:33:30;2.42;;;1.90;;
7747;SDS011;3918;42.564;23.164;2022-09-13T08:35:57;2.65;;;1.95;;
7747;SDS011;3918;42.564;23.164;2022-09-13T08:38:24;1.88;;;1.48;;
7747;SDS011;3918;42.564;23.164;2022-09-13T08:40:52;2.33;;;1.38;;
7747;SDS011;3918;42.564;23.164;2022-09-13T08:43:22;2.45;;;1.23;;
7747;SDS011;3918;42.564;23.164;2022-09-13T08:45:59;1.40;;;1.38;;
7747;SDS011;3918;42.564;23.164;2022-09-13T08:48:31;1.50;;;1.20;;
7747;SDS011;3918;42.564;23.164;2022-09-13T08:51:02;1.42;;;1.33;;
7747;SDS011;3918;42.564;23.164;2022-09-13T08:53:32;7.72;;;2.30;;
7747;SDS011;3918;42.564;23.164;2022-09-13T08:56:07;1.40;;;1.30;;
7747;SDS011;3918;42.564;23.164;2022-09-13T08:58:43;0.95;;;0.95;;
7747;SDS011;3918;42.564;23.164;2022-09-13T09:01:25;10.98;;;1.80;;
7747;SDS011;3918;42.564;23.164;2022-09-13T09:04:01;1.58;;;1.50;;
7747;SDS011;3918;42.564;23.164;2022-09-13T09:06:38;2.95;;;1.50;;
7747;SDS011;3918;42.564;23.164;2022-09-13T09:09:06;6.65;;;1.10;;
7747;SDS011;3918;42.564;23.164;2022-09-13T09:11:36;2.17;;;1.30;;
7747;SDS011;3918;42.564;23.164;2022-09-13T09:14:11;2.72;;;1.40;;
7747;SDS011;3918;42.564;23.164;2022-09-13T09:16:46;3.38;;;1.30;;
7747;SDS011;3918;42.564;23.164;2022-09-13T09:19:18;1.50;;;1.40;;
7747;SDS011;3918;42.564;23.164;2022-09-13T09:21:48;8.02;;;1.95;;
7747;SDS011;3918;42.564;23.164;2022-09-13T09:24:17;4.57;;;2.58;;
7747;SDS011;3918;42.564;23.164;2022-09-13T09:26:47;3.17;;;1.40;;
7747;SDS011;3918;42.564;23.164;2022-09-13T09:29:17;2.92;;;1.27;;
7747;SDS011;3918;42.564;23.164;2022-09-13T09:31:53;1.65;;;1.27;;
7747;SDS011;3918;42.564;23.164;2022-09-13T09:34:35;1.17;;;1.13;;
7747;SDS011;3918;42.564;23.164;2022-09-13T09:37:15;1.05;;;1.05;;
7747;SDS011;3918;42.564;23.164;2022-09-13T09:39:46;1.80;;;1.40;;
7747;SDS011;3918;42.564;23.164;2022-09-13T09:42:15;1.63;;;1.45;;
7747;SDS011;3918;42.564;23.164;2022-09-13T09:44:46;1.52;;;1.42;;
7747;SDS011;3918;42.564;23.164;2022-09-13T09:47:19;1.70;;;1.60;;
7747;SDS011;3918;42.564;23.164;2022-09-13T09:49:49;1.50;;;1.40;;
7747;SDS011;3918;42.564;23.164;2022-09-13T09:55:57;1.67;;;1.52;;
7747;SDS011;3918;42.564;23.164;2022-09-13T09:58:37;1.20;;;1.20;;
7747;SDS011;3918;42.564;23.164;2022-09-13T10:01:08;3.20;;;0.95;;
7747;SDS011;3918;42.564;23.164;2022-09-13T10:03:49;4.80;;;1.30;;
7747;SDS011;3918;42.564;23.164;2022-09-13T10:06:20;1.33;;;1.20;;
7747;SDS011;3918;42.564;23.164;2022-09-13T10:08:53;7.93;;;1.50;;
7747;SDS011;3918;42.564;23.164;2022-09-13T10:11:24;2.65;;;1.13;;
7747;SDS011;3918;42.564;23.164;2022-09-13T10:14:04;2.35;;;1.90;;
7747;SDS011;3918;42.564;23.164;2022-09-13T10:16:31;13.25;;;2.17;;
7747;SDS011;3918;42.564;23.164;2022-09-13T10:21:59;10.23;;;2.00;;
7747;SDS011;3918;42.564;23.164;2022-09-13T10:24:30;10.73;;;2.15;;
7747;SDS011;3918;42.564;23.164;2022-09-13T10:26:58;3.67;;;2.35;;
7747;SDS011;3918;42.564;23.164;2022-09-13T10:29:25;4.07;;;2.10;;
7747;SDS011;3918;42.564;23.164;2022-09-13T10:31:53;5.50;;;2.00;;
7747;SDS011;3918;42.564;23.164;2022-09-13T10:34:24;1.98;;;1.30;;
7747;SDS011;3918;42.564;23.164;2022-09-13T10:36:55;1.83;;;1.45;;
7747;SDS011;3918;42.564;23.164;2022-09-13T10:39:26;16.58;;;2.53;;
7747;SDS011;3918;42.564;23.164;2022-09-13T10:41:55;5.07;;;2.00;;
7747;SDS011;3918;42.564;23.164;2022-09-13T10:44:26;10.30;;;2.10;;
7747;SDS011;3918;42.564;23.164;2022-09-13T10:46:57;6.13;;;1.58;;
7747;SDS011;3918;42.564;23.164;2022-09-13T11:03:01;5.20;;;1.60;;
7747;SDS011;3918;42.564;23.164;2022-09-13T11:05:36;1.70;;;1.60;;
7747;SDS011;3918;42.564;23.164;2022-09-13T11:08:21;8.93;;;2.75;;
7747;SDS011;3918;42.564;23.164;2022-09-13T11:11:03;7.43;;;1.88;;
7747;SDS011;3918;42.564;23.164;2022-09-13T11:13:39;3.13;;;1.80;;
7747;SDS011;3918;42.564;23.164;2022-09-13T11:16:22;1.92;;;1.73;;
7747;SDS011;3918;42.564;23.164;2022-09-13T11:19:07;1.90;;;1.80;;
7747;SDS011;3918;42.564;23.164;2022-09-13T11:21:51;2.30;;;1.70;;
7747;SDS011;3918;42.564;23.164;2022-09-13T11:24:42;3.35;;;1.77;;
7747;SDS011;3918;42.564;23.164;2022-09-13T11:27:19;5.63;;;1.45;;
7747;SDS011;3918;42.564;23.164;2022-09-13T11:30:02;3.60;;;1.92;;
7747;SDS011;3918;42.564;23.164;2022-09-13T11:32:42;3.13;;;1.58;;
7747;SDS011;3918;42.564;23.164;2022-09-13T11:35:35;3.67;;;1.55;;
7747;SDS011;3918;42.564;23.164;2022-09-13T11:38:14;7.03;;;1.80;;
7747;SDS011;3918;42.564;23.164;2022-09-13T11:40:54;3.72;;;1.70;;
7747;SDS011;3918;42.564;23.164;2022-09-13T11:46:20;3.55;;;1.98;;
7747;SDS011;3918;42.564;23.164;2022-09-13T11:51:56;9.40;;;2.42;;
7747;SDS011;3918;42.564;23.164;2022-09-13T11:54:36;1.55;;;1.45;;
7747;SDS011;3918;42.564;23.164;2022-09-13T11:57:15;2.47;;;1.27;;
7747;SDS011;3918;42.564;23.164;2022-09-13T11:59:46;4.95;;;1.98;;
7747;SDS011;3918;42.564;23.164;2022-09-13T12:02:26;1.27;;;1.10;;
7747;SDS011;3918;42.564;23.164;2022-09-13T12:04:58;5.20;;;1.83;;
7747;SDS011;3918;42.564;23.164;2022-09-13T12:07:33;3.05;;;1.45;;
7747;SDS011;3918;42.564;23.164;2022-09-13T12:10:05;1.60;;;1.50;;
7747;SDS011;3918;42.564;23.164;2022-09-13T12:12:41;4.97;;;1.73;;
7747;SDS011;3918;42.564;23.164;2022-09-13T12:15:14;4.97;;;1.50;;
7747;SDS011;3918;42.564;23.164;2022-09-13T12:17:43;9.98;;;2.33;;
7747;SDS011;3918;42.564;23.164;2022-09-13T12:20:15;4.13;;;1.88;;
7747;SDS011;3918;42.564;23.164;2022-09-13T12:22:49;1.83;;;1.73;;
7747;SDS011;3918;42.564;23.164;2022-09-13T12:25:20;3.08;;;1.65;;
7747;SDS011;3918;42.564;23.164;2022-09-13T12:27:51;10.35;;;2.50;;
7747;SDS011;3918;42.564;23.164;2022-09-13T12:30:24;15.82;;;3.28;;
7747;SDS011;3918;42.564;23.164;2022-09-13T12:32:59;4.72;;;1.70;;
7747;SDS011;3918;42.564;23.164;2022-09-13T12:35:26;1.90;;;1.80;;
7747;SDS011;3918;42.564;23.164;2022-09-13T12:38:05;3.97;;;1.40;;
7747;SDS011;3918;42.564;23.164;2022-09-13T12:43:59;5.35;;;1.63;;
7747;SDS011;3918;42.564;23.164;2022-09-13T12:46:48;9.00;;;2.25;;
7747;SDS011;3918;42.564;23.164;2022-09-13T12:49:41;5.18;;;1.48;;
7747;SDS011;3918;42.564;23.164;2022-09-13T12:52:27;2.78;;;2.15;;
7747;SDS011;3918;42.564;23.164;2022-09-13T12:58:18;1.45;;;1.35;;
7747;SDS011;3918;42.564;23.164;2022-09-13T13:01:09;1.67;;;1.58;;
7747;SDS011;3918;42.564;23.164;2022-09-13T13:03:42;4.57;;;1.90;;
7747;SDS011;3918;42.564;23.164;2022-09-13T13:06:25;6.57;;;1.80;;
7747;SDS011;3918;42.564;23.164;2022-09-13T13:08:58;4.97;;;1.20;;
7747;SDS011;3918;42.564;23.164;2022-09-13T13:11:29;1.80;;;1.70;;
7747;SDS011;3918;42.564;23.164;2022-09-13T13:14:22;29.83;;;3.05;;
7747;SDS011;3918;42.564;23.164;2022-09-13T13:16:53;5.00;;;1.63;;
7747;SDS011;3918;42.564;23.164;2022-09-13T13:19:41;5.35;;;1.80;;
7747;SDS011;3918;42.564;23.164;2022-09-13T13:27:57;2.75;;;1.42;;
7747;SDS011;3918;42.564;23.164;2022-09-13T13:33:20;12.93;;;3.30;;
7747;SDS011;3918;42.564;23.164;2022-09-13T13:35:51;4.63;;;1.80;;
7747;SDS011;3918;42.564;23.164;2022-09-13T13:41:17;2.00;;;1.80;;
7747;SDS011;3918;42.564;23.164;2022-09-13T13:50:12;8.15;;;2.25;;
7747;SDS011;3918;42.564;23.164;2022-09-13T13:52:50;4.13;;;1.90;;
7747;SDS011;3918;42.564;23.164;2022-09-13T13:55:27;3.95;;;1.67;;
7747;SDS011;3918;42.564;23.164;2022-09-13T13:57:58;1.80;;;1.70;;
7747;SDS011;3918;42.564;23.164;2022-09-13T14:00:28;1.63;;;1.58;;
7747;SDS011;3918;42.564;23.164;2022-09-13T14:02:58;3.28;;;1.67;;
7747;SDS011;3918;42.564;23.164;2022-09-13T14:05:39;2.00;;;1.90;;
7747;SDS011;3918;42.564;23.164;2022-09-13T14:08:25;3.60;;;1.98;;
7747;SDS011;3918;42.564;23.164;2022-09-13T14:11:02;7.60;;;2.10;;
7747;SDS011;3918;42.564;23.164;2022-09-13T14:13:41;3.47;;;1.70;;
7747;SDS011;3918;42.564;23.164;2022-09-13T14:16:19;5.30;;;1.88;;
7747;SDS011;3918;42.564;23.164;2022-09-13T14:18:58;3.47;;;1.90;;
7747;SDS011;3918;42.564;23.164;2022-09-13T14:21:34;1.98;;;1.88;;
7747;SDS011;3918;42.564;23.164;2022-09-13T14:24:16;2.10;;;2.00;;
7747;SDS011;3918;42.564;23.164;2022-09-13T14:26:45;8.10;;;2.30;;
7747;SDS011;3918;42.564;23.164;2022-09-13T14:29:15;2.85;;;1.95;;
7747;SDS011;3918;42.564;23.164;2022-09-13T14:31:44;2.25;;;2.03;;
7747;SDS011;3918;42.564;23.164;2022-09-13T14:34:22;4.05;;;1.88;;
7747;SDS011;3918;42.564;23.164;2022-09-13T14:36:50;7.25;;;2.85;;
7747;SDS011;3918;42.564;23.164;2022-09-13T14:39:20;6.28;;;1.88;;
7747;SDS011;3918;42.564;23.164;2022-09-13T14:41:47;4.15;;;2.05;;
7747;SDS011;3918;42.564;23.164;2022-09-13T14:44:24;2.95;;;1.83;;
7747;SDS011;3918;42.564;23.164;2022-09-13T14:46:53;10.23;;;2.33;;
7747;SDS011;3918;42.564;23.164;2022-09-13T14:49:29;2.22;;;1.50;;
7747;SDS011;3918;42.564;23.164;2022-09-13T14:52:01;5.90;;;1.85;;
7747;SDS011;3918;42.564;23.164;2022-09-13T14:54:34;2.30;;;2.10;;
7747;SDS011;3918;42.564;23.164;2022-09-13T14:57:05;7.13;;;2.47;;
7747;SDS011;3918;42.564;23.164;2022-09-13T14:59:35;2.20;;;1.52;;
7747;SDS011;3918;42.564;23.164;2022-09-13T15:02:14;1.98;;;1.88;;
7747;SDS011;3918;42.564;23.164;2022-09-13T15:04:46;5.40;;;1.98;;
7747;SDS011;3918;42.564;23.164;2022-09-13T15:07:20;14.27;;;3.38;;
7747;SDS011;3918;42.564;23.164;2022-09-13T15:09:55;11.30;;;2.92;;
7747;SDS011;3918;42.564;23.164;2022-09-13T15:12:25;5.32;;;1.58;;
7747;SDS011;3918;42.564;23.164;2022-09-13T15:17:51;2.40;;;1.70;;
7747;SDS011;3918;42.564;23.164;2022-09-13T15:20:19;2.25;;;1.63;;
7747;SDS011;3918;42.564;23.164;2022-09-13T15:22:46;9.30;;;2.45;;
7747;SDS011;3918;42.564;23.164;2022-09-13T15:25:20;1.83;;;1.70;;
7747;SDS011;3918;42.564;23.164;2022-09-13T15:27:51;1.67;;;1.33;;
7747;SDS011;3918;42.564;23.164;2022-09-13T15:30:20;1.73;;;1.63;;
7747;SDS011;3918;42.564;23.164;2022-09-13T15:33:01;6.18;;;2.00;;
7747;SDS011;3918;42.564;23.164;2022-09-13T15:35:35;1.60;;;1.50;;
7747;SDS011;3918;42.564;23.164;2022-09-13T15:38:14;1.60;;;1.50;;
7747;SDS011;3918;42.564;23.164;2022-09-13T15:41:11;2.65;;;1.90;;
7747;SDS011;3918;42.564;23.164;2022-09-13T15:43:39;1.70;;;1.60;;
7747;SDS011;3918;42.564;23.164;2022-09-13T15:46:05;4.97;;;2.00;;
7747;SDS011;3918;42.564;23.164;2022-09-13T15:48:35;2.05;;;1.92;;
7747;SDS011;3918;42.564;23.164;2022-09-13T15:51:03;4.32;;;2.20;;
7747;SDS011;3918;42.564;23.164;2022-09-13T15:53:34;2.08;;;1.98;;
7747;SDS011;3918;42.564;23.164;2022-09-13T15:56:04;2.45;;;1.85;;
7747;SDS011;3918;42.564;23.164;2022-09-13T15:58:32;2.17;;;2.05;;
7747;SDS011;3918;42.564;23.164;2022-09-13T16:01:00;2.17;;;2.08;;
7747;SDS011;3918;42.564;23.164;2022-09-13T16:03:28;8.65;;;2.40;;
7747;SDS011;3918;42.564;23.164;2022-09-13T16:05:55;2.17;;;2.03;;
7747;SDS011;3918;42.564;23.164;2022-09-13T16:08:22;2.22;;;2.13;;
7747;SDS011;3918;42.564;23.164;2022-09-13T16:10:49;4.55;;;2.05;;
7747;SDS011;3918;42.564;23.164;2022-09-13T16:13:17;2.03;;;1.92;;
7747;SDS011;3918;42.564;23.164;2022-09-13T16:15:44;2.47;;;2.15;;
7747;SDS011;3918;42.564;23.164;2022-09-13T16:18:11;2.22;;;2.00;;
7747;SDS011;3918;42.564;23.164;2022-09-13T16:20:40;6.13;;;2.08;;
7747;SDS011;3918;42.564;23.164;2022-09-13T16:23:07;10.27;;;2.58;;
7747;SDS011;3918;42.564;23.164;2022-09-13T16:25:34;11.43;;;2.55;;
7747;SDS011;3918;42.564;23.164;2022-09-13T16:28:01;2.80;;;2.60;;
7747;SDS011;3918;42.564;23.164;2022-09-13T16:30:30;5.97;;;2.28;;
7747;SDS011;3918;42.564;23.164;2022-09-13T16:32:57;3.05;;;2.58;;
7747;SDS011;3918;42.564;23.164;2022-09-13T16:35:25;8.98;;;3.08;;
7747;SDS011;3918;42.564;23.164;2022-09-13T16:37:54;3.03;;;2.83;;
7747;SDS011;3918;42.564;23.164;2022-09-13T16:40:21;4.05;;;2.60;;
7747;SDS011;3918;42.564;23.164;2022-09-13T16:42:48;13.15;;;3.28;;
7747;SDS011;3918;42.564;23.164;2022-09-13T16:45:15;5.90;;;3.10;;
7747;SDS011;3918;42.564;23.164;2022-09-13T16:47:44;3.78;;;3.17;;
7747;SDS011;3918;42.564;23.164;2022-09-13T16:50:10;3.17;;;2.88;;
7747;SDS011;3918;42.564;23.164;2022-09-13T16:52:38;4.53;;;2.78;;
7747;SDS011;3918;42.564;23.164;2022-09-13T16:55:05;2.75;;;2.50;;
7747;SDS011;3918;42.564;23.164;2022-09-13T16:57:33;3.63;;;2.90;;
7747;SDS011;3918;42.564;23.164;2022-09-13T17:00:00;4.68;;;3.30;;
7747;SDS011;3918;42.564;23.164;2022-09-13T17:02:31;4.05;;;3.40;;
7747;SDS011;3918;42.564;23.164;2022-09-13T17:04:59;7.65;;;3.80;;
7747;SDS011;3918;42.564;23.164;2022-09-13T17:07:26;5.57;;;3.58;;
7747;SDS011;3918;42.564;23.164;2022-09-13T17:09:52;5.93;;;3.83;;
7747;SDS011;3918;42.564;23.164;2022-09-13T17:12:19;9.25;;;4.93;;
7747;SDS011;3918;42.564;23.164;2022-09-13T17:14:46;4.88;;;3.78;;
7747;SDS011;3918;42.564;23.164;2022-09-13T17:17:15;6.65;;;3.78;;
7747;SDS011;3918;42.564;23.164;2022-09-13T17:19:42;3.85;;;3.55;;
7747;SDS011;3918;42.564;23.164;2022-09-13T17:22:11;4.97;;;3.60;;
7747;SDS011;3918;42.564;23.164;2022-09-13T17:24:38;10.35;;;4.10;;
7747;SDS011;3918;42.564;23.164;2022-09-13T17:27:05;4.85;;;3.80;;
7747;SDS011;3918;42.564;23.164;2022-09-13T17:29:32;3.97;;;3.58;;
7747;SDS011;3918;42.564;23.164;2022-09-13T17:32:01;9.88;;;3.95;;
7747;SDS011;3918;42.564;23.164;2022-09-13T17:34:29;4.80;;;3.60;;
7747;SDS011;3918;42.564;23.164;2022-09-13T17:36:58;4.72;;;3.20;;
7747;SDS011;3918;42.564;23.164;2022-09-13T17:39:28;5.18;;;3.65;;
7747;SDS011;3918;42.564;23.164;2022-09-13T17:41:55;5.40;;;3.67;;
7747;SDS011;3918;42.564;23.164;2022-09-13T17:44:23;5.15;;;3.72;;
7747;SDS011;3918;42.564;23.164;2022-09-13T17:46:49;7.47;;;3.85;;
7747;SDS011;3918;42.564;23.164;2022-09-13T17:49:16;4.50;;;4.10;;
7747;SDS011;3918;42.564;23.164;2022-09-13T17:51:43;6.13;;;4.40;;
7747;SDS011;3918;42.564;23.164;2022-09-13T17:54:10;9.00;;;4.18;;
7747;SDS011;3918;42.564;23.164;2022-09-13T17:56:39;7.72;;;3.85;;
7747;SDS011;3918;42.564;23.164;2022-09-13T17:59:07;3.90;;;3.60;;
7747;SDS011;3918;42.564;23.164;2022-09-13T18:01:36;3.95;;;3.60;;
7747;SDS011;3918;42.564;23.164;2022-09-13T18:04:04;3.65;;;3.38;;
7747;SDS011;3918;42.564;23.164;2022-09-13T18:06:31;4.50;;;3.90;;
7747;SDS011;3918;42.564;23.164;2022-09-13T18:08:59;5.68;;;4.40;;
7747;SDS011;3918;42.564;23.164;2022-09-13T18:11:25;6.82;;;4.05;;
7747;SDS011;3918;42.564;23.164;2022-09-13T18:13:54;5.28;;;3.42;;
7747;SDS011;3918;42.564;23.164;2022-09-13T18:16:21;4.97;;;3.60;;
7747;SDS011;3918;42.564;23.164;2022-09-13T18:18:50;6.47;;;3.50;;
7747;SDS011;3918;42.564;23.164;2022-09-13T18:21:18;4.05;;;3.65;;
7747;SDS011;3918;42.564;23.164;2022-09-13T18:23:46;3.88;;;3.63;;
7747;SDS011;3918;42.564;23.164;2022-09-13T18:26:15;3.47;;;3.20;;
7747;SDS011;3918;42.564;23.164;2022-09-13T18:28:44;4.07;;;3.60;;
7747;SDS011;3918;42.564;23.164;2022-09-13T18:31:13;4.03;;;3.60;;
7747;SDS011;3918;42.564;23.164;2022-09-13T18:33:41;3.33;;;3.10;;
7747;SDS011;3918;42.564;23.164;2022-09-13T18:36:10;3.72;;;3.42;;
7747;SDS011;3918;42.564;23.164;2022-09-13T18:38:39;6.22;;;3.97;;
7747;SDS011;3918;42.564;23.164;2022-09-13T18:41:07;3.85;;;3.65;;
7747;SDS011;3918;42.564;23.164;2022-09-13T18:43:37;5.95;;;3.67;;
7747;SDS011;3918;42.564;23.164;2022-09-13T18:46:05;4.38;;;3.22;;
7747;SDS011;3918;42.564;23.164;2022-09-13T18:48:35;4.43;;;3.75;;
7747;SDS011;3918;42.564;23.164;2022-09-13T18:51:04;5.05;;;4.30;;
7747;SDS011;3918;42.564;23.164;2022-09-13T18:53:33;4.70;;;3.92;;
7747;SDS011;3918;42.564;23.164;2022-09-13T18:56:01;4.65;;;4.30;;
7747;SDS011;3918;42.564;23.164;2022-09-13T18:58:29;3.97;;;3.65;;
7747;SDS011;3918;42.564;23.164;2022-09-13T19:01:00;4.25;;;3.60;;
